Rincon Reservation (909, 6926) Station Data

Red Flag Warning: No
Fire Weather Zone: 250
SDGE Region: North East
Lat/Lon: 33.251/-116.957

Observations

Time Wind Speed/Gust Temp(F) RH Fuel Moist Fuel Temp(F) Dewpt(F) Tmax(F) Tmin(F) Accum Precip 10-min Precip SL Press(mb)
2/27 11:40pm 237 0 G 1 51° 100% - - 51° 55.8° 41.2° - - 899.0
2/27 11:20pm 74 0 G 1 51° 100% - - 52° 55.8° 41.2° - - 899.0
2/27 11:10pm 0 0 G 0 52° 100% - - 52° 55.8° 41.2° - - 899.0
2/27 11:00pm 249 1 G 2 52° 100% - - 52° 55.8° 41.2° - - 899.0
2/27 10:50pm 330 1 G 2 52° 100% - - 52° 55.8° 41.2° - - 899.0
2/27 10:40pm 85 1 G 2 52° 100% - - 52° 55.8° 41.2° - - 899.0
2/27 10:30pm 221 0 G 1 52° 100% - - 52° 55.8° 41.2° - - 899.0
2/27 10:20pm 75 2 G 4 52° 100% - - 52° 55.8° 41.2° - - 899.0
2/27 10:10pm 35 4 G 6 52° 100% - - 52° 55.8° 41.2° - - 899.0
2/27 10:00pm 34 2 G 5 52° 100% - - 52° 55.8° 41.2° - - 899.0
2/27 9:50pm 278 1 G 3 52° 100% - - 52° 55.8° 41.2° - - 899.0
2/27 9:40pm 238 3 G 6 53° 100% - - 53° 55.8° 41.2° - - 899.0
2/27 9:30pm 214 4 G 6 53° 100% - - 53° 55.8° 41.2° - - 899.0
2/27 9:20pm 242 2 G 5 53° 100% - - 53° 55.8° 41.2° - - 899.0
2/27 9:10pm 247 1 G 3 53° 100% - - 53° 55.8° 41.2° - - 899.0
2/27 9:00pm 179 0 G 1 53° 100% - - 53° 55.8° 41.2° - - 899.0
2/27 8:50pm 184 2 G 3 53° 100% - - 53° 55.8° 41.2° - - 899.0
2/27 8:40pm 207 4 G 7 53° 100% - - 53° 55.8° 41.2° - - 899.0
2/27 8:30pm 227 3 G 7 53° 100% - - 53° 55.8° 41.2° - - 899.0
2/27 8:20pm 222 4 G 9 53° 100% - - 53° 55.8° 41.2° - - 898.0
2/27 8:10pm 205 9 G 15 53° 100% - - 54° 55.8° 41.2° - - 897.0
2/27 8:00pm 193 12 G 22 53° 100% - - 53° 55.8° 41.2° - - 898.0
2/27 7:50pm 196 6 G 13 53° 100% - - 53° 55.8° 41.2° - - 898.0
2/27 7:40pm 208 9 G 17 53° 100% - - 53° 55.8° 41.2° - - 898.0
2/27 7:30pm 195 7 G 13 53° 100% - - 53° 55.8° 41.2° - - 898.0
2/27 7:20pm 206 4 G 7 53° 100% - - 53° 55.8° 41.2° - - 898.0
2/27 7:10pm 206 8 G 14 53° 100% - - 53° 55.8° 41.2° - - 898.0
2/27 7:00pm 196 6 G 12 53° 100% - - 53° 55.8° 41.2° - - 898.0
2/27 6:50pm 193 10 G 17 53° 100% - - 53° 55.8° 41.2° - - 897.0
2/27 6:40pm 199 8 G 15 53° 100% - - 53° 55.8° 41.2° - - 897.0
2/27 6:30pm 190 10 G 17 54° 100% - - 54° 55.8° 41.2° - - 897.0
2/27 6:20pm 202 11 G 18 54° 100% - - 54° 55.8° 41.2° - - 897.0
2/27 6:10pm 201 12 G 22 54° 100% - - 54° 55.8° 41.2° - - 897.0
2/27 6:00pm 201 11 G 17 54° 100% - - 54° 55.8° 41.2° - - 897.0
2/27 5:50pm 198 11 G 18 54° 100% - - 54° 55.8° 41.2° - - 897.0
2/27 5:40pm 200 12 G 21 54° 100% - - 54° 55.8° 41.2° - - 897.0
2/27 5:30pm 196 9 G 23 54° 100% - - 54° 55.8° 41.2° - - 898.0
2/27 5:20pm 187 8 G 15 54° 100% - - 54° 55.8° 41.2° - - 898.0
2/27 5:10pm 185 9 G 17 54° 100% - - 54° 55.8° 41.2° - - 898.0
2/27 5:00pm 190 10 G 21 54° 100% - - 54° 55.8° 41.2° - - 898.0
2/27 4:50pm 190 9 G 16 54° 100% - - 54° 55.8° 41.2° - - 897.0
2/27 4:40pm 186 8 G 16 54° 100% - - 54° 55.8° 41.2° - - 897.0
2/27 4:30pm 184 9 G 17 54° 100% - - 54° 55.8° 41.2° - - 897.0
2/27 4:20pm 173 12 G 20 54° 100% - - 54° 55.8° 41.2° - - 897.0
2/27 4:10pm 183 10 G 19 54° 100% - - 54° 55.8° 41.2° - - 898.0
2/27 4:00pm 197 8 G 15 54° 100% - - 54° 55.8° 41.2° - - 898.0
2/27 3:50pm 200 7 G 13 54° 100% - - 54° 55.8° 41.2° - - 897.0
2/27 3:40pm 187 8 G 13 55° 100% - - 55° 55.8° 41.2° - - 897.0
2/27 3:30pm 179 10 G 17 55° 100% - - 55° 55.8° 41.2° - - 897.0
2/27 3:20pm 180 12 G 19 55° 99% - - 55° 55.8° 41.2° - - 896.0
2/27 3:10pm 183 13 G 23 55° 100% - - 55° 55.8° 41.2° - - 897.0
2/27 3:00pm 176 12 G 23 55° 100% - - 55° 55.8° 41.2° - - 897.0
2/27 2:50pm 176 14 G 20 55° 100% - - 55° 55.8° 41.2° - - 897.0
2/27 2:40pm 182 16 G 27 55° 100% - - 55° 55.8° 41.2° - - 897.0
2/27 2:30pm 182 13 G 24 55° 100% - - 55° 55.8° 41.2° - - 897.0
2/27 2:20pm 180 14 G 27 55° 100% - - 55° 55.8° 41.2° - - 897.0
2/27 2:10pm 190 13 G 21 55° 100% - - 55° 55.8° 41.2° - - 898.0
2/27 2:00pm 197 9 G 19 55° 100% - - 55° 55.8° 41.2° - - 897.0
2/27 1:50pm 175 11 G 19 55° 100% - - 55° 55.8° 41.2° - - 897.0
2/27 1:40pm 177 11 G 18 55° 100% - - 55° 55.8° 41.2° - - 897.0
2/27 1:30pm 174 12 G 18 55° 100% - - 55° 55.8° 41.2° - - 898.0
2/27 1:20pm 184 10 G 17 55° 100% - - 55° 55.8° 41.2° - - 898.0
2/27 1:10pm 185 11 G 20 55° 100% - - 55° 55.8° 41.2° - - 898.0
2/27 1:00pm 192 6 G 13 55° 100% - - 55° 55.8° 41.2° - - 898.0
2/27 12:40pm 183 7 G 13 55° 100% - - 55° 55.8° 41.2° - - 898.0
2/27 12:30pm 189 8 G 13 55° 100% - - 55° 55.8° 41.2° - - 898.0
2/27 12:20pm 176 7 G 15 54° 100% - - 54° 55.8° 41.2° - - 899.0
2/27 12:10pm 191 5 G 12 54° 100% - - 54° 55.8° 41.2° - - 899.0
2/27 12:00pm 209 5 G 7 54° 100% - - 54° 55.8° 41.2° - - 899.0
2/27 11:50am 211 7 G 13 54° 100% - - 54° 55.8° 41.2° - - 898.0
2/27 11:40am 222 8 G 16 54° 100% - - 54° 55.8° 41.2° - - 897.0
2/27 11:30am 216 6 G 11 55° 100% - - 55° 55.8° 41.2° - - 897.0
2/27 11:20am 195 8 G 14 55° 100% - - 55° 55.8° 41.2° - - 896.0
2/27 11:10am 182 10 G 19 55° 100% - - 55° 55.8° 41.2° - - 896.0
2/27 11:00am 169 14 G 23 55° 99% - - 55° 55.8° 41.2° - - 896.0
2/27 10:50am 166 14 G 22 56° 100% - - 55° 55.8° 41.2° - - 896.0
2/27 10:40am 177 14 G 26 55° 100% - - 55° 55.7° 41.2° - - 897.0
2/27 10:30am 184 11 G 21 55° 100% - - 55° 55.7° 41.2° - - 898.0
2/27 10:20am 185 10 G 21 55° 100% - - 55° 55.2° 41.2° - - 898.0
2/27 10:10am 184 11 G 19 55° 100% - - 55° 55.1° 41.2° - - 899.0
2/27 10:00am 185 8 G 18 55° 100% - - 55° 54.9° 41.2° - - 899.0
2/27 9:50am 185 8 G 14 55° 100% - - 55° 54.8° 41.2° - - 899.0
2/27 9:40am 187 6 G 11 55° 100% - - 55° 54.7° 41.2° - - 900.0
2/27 9:30am 186 5 G 9 54° 100% - - 54° 54.6° 41.2° - - 900.0
2/27 9:20am 198 7 G 12 54° 100% - - 54° 54.4° 41.2° - - 899.0
2/27 9:10am 197 7 G 13 54° 100% - - 54° 54.3° 41.2° - - 899.0
2/27 9:00am 223 4 G 11 51° 100% - - 51° 53.5° 41.2° - - 898.0
2/27 8:50am 332 1 G 3 48° 100% - - 48° 48.7° 41.2° - - 898.0
2/27 8:40am 27 1 G 2 48° 100% - - 48° 48.1° 41.2° - - 898.0
2/27 8:30am 177 0 G 2 48° 100% - - 48° 48° 41.2° - - 898.0
2/27 8:20am 111 1 G 2 48° 100% - - 48° 47.7° 41.2° - - 898.0
2/27 8:10am 19 1 G 3 47° 100% - - 47° 47.7° 41.2° - - 898.0
2/27 8:00am 23 1 G 2 47° 100% - - 47° 47.5° 41.2° - - 898.0
2/27 7:50am 112 0 G 2 47° 100% - - 47° 47.3° 41.2° - - 898.0
2/27 7:40am 16 1 G 4 47° 100% - - 47° 47.1° 41.2° - - 897.0
2/27 7:30am 86 1 G 2 47° 100% - - 47° 47° 41.2° - - 897.0
2/27 7:20am 251 0 G 2 47° 100% - - 47° 46.9° 41.2° - - 897.0
2/27 7:10am 358 0 G 1 46° 100% - - 46° 46.6° 41.2° - - 897.0
2/27 7:00am 3 1 G 2 46° 100% - - 46° 46.3° 41.2° - - 897.0
2/27 6:50am 271 1 G 2 46° 100% - - 46° 46.3° 41.2° - - 897.0
2/27 6:40am 234 1 G 2 46° 100% - - 46° 46.1° 41.2° - - 897.0
2/27 6:30am 184 1 G 2 46° 100% - - 46° 46.1° 41.2° - - 897.0
2/27 6:20am 198 0 G 1 46° 100% - - 46° 46.1° 41.2° - - 897.0
2/27 6:10am 260 0 G 1 46° 100% - - 46° 46.1° 41.2° - - 897.0
2/27 6:00am 35 1 G 2 46° 100% - - 46° 46.1° 41.2° - - 897.0
2/27 5:50am 51 2 G 4 46° 100% - - 46° 46.1° 41.2° - - 897.0
2/27 5:40am 39 3 G 7 45° 100% - - 45° 46.1° 41.2° - - 897.0
2/27 5:30am 46 4 G 6 45° 100% - - 45° 46.1° 41.2° - - 897.0
2/27 5:20am 41 3 G 6 45° 100% - - 45° 46.1° 41.2° - - 897.0
2/27 5:10am 66 2 G 4 45° 100% - - 45° 46.1° 41.2° - - 897.0
2/27 5:00am 24 2 G 4 45° 100% - - 45° 46.1° 41.2° - - 897.0
2/27 4:50am 56 3 G 5 45° 100% - - 45° 46.1° 41.2° - - 897.0
2/27 4:40am 30 3 G 6 46° 100% - - 46° 46.1° 41.2° - - 897.0
2/27 4:30am 47 1 G 3 46° 100% - - 46° 46.1° 41.2° - - 897.0
2/27 4:20am 357 0 G 2 46° 100% - - 46° 46.1° 41.2° - - 897.0
2/27 4:10am 57 0 G 1 46° 100% - - 46° 46.1° 41.2° - - 897.0
2/27 4:00am 67 0 G 1 46° 100% - - 46° 46.1° 41.2° - - 897.0
2/27 3:50am 33 1 G 2 46° 100% - - 46° 46.1° 41.2° - - 897.0
2/27 3:40am 73 1 G 2 46° 100% - - 46° 46.1° 41.2° - - 896.0
2/27 3:30am 98 1 G 2 46° 100% - - 46° 46.1° 41.2° - - 896.0
2/27 3:20am 23 1 G 2 46° 100% - - 46° 46.1° 41.2° - - 896.0
2/27 3:10am 337 1 G 2 46° 100% - - 46° 46.1° 41.2° - - 896.0
2/27 3:00am 237 1 G 2 46° 100% - - 46° 46° 41.2° - - 896.0
2/27 2:50am 210 3 G 3 45° 100% - - 45° 45.7° 41.2° - - 896.0
2/27 2:40am 199 2 G 3 45° 100% - - 45° 45.7° 41.2° - - 895.0
2/27 2:30am 220 1 G 1 45° 100% - - 45° 45.7° 41.2° - - 895.0
2/27 2:20am 0 0 G 0 45° 100% - - 45° 45.7° 41.2° - - 895.0
2/27 2:10am 179 0 G 1 45° 100% - - 45° 45.7° 41.2° - - 894.0
2/27 2:00am 225 2 G 3 45° 100% - - 45° 45.7° 41.2° - - 894.0
2/27 1:50am 167 1 G 2 45° 100% - - 45° 45.7° 41.2° - - 893.0
2/27 1:40am 64 1 G 1 45° 99% - - 45° 45.7° 41.2° - - 893.0
2/27 1:30am 273 1 G 2 45° 99% - - 45° 45.5° 41.2° - - 892.0
2/27 1:20am 198 1 G 3 45° 98% - - 44° 45.3° 41.2° - - 892.0
2/27 1:10am 222 3 G 5 45° 98% - - 44° 45.1° 41.2° - - 892.0
2/27 1:00am 217 4 G 6 44° 100% - - 44° 44.5° 41.2° - - 893.0
2/27 12:50am 213 3 G 5 43° 100% - - 43° 43.5° 41.2° - - 893.0
2/27 12:40am 236 2 G 5 43° 100% - - 43° 43° 41.2° - - 893.0
2/27 12:30am 210 2 G 3 42° 100% - - 42° 42.4° 41.2° - - 894.0
2/27 12:20am 170 2 G 4 42° 100% - - 42° 41.9° 41.2° - - 893.0
2/27 12:10am 245 2 G 3 42° 100% - - 42° 41.7° 41.3° - - 893.0
2/27 12:00am 217 3 G 4 42° 100% - - 42° 57.1° 40.6° - - 894.0
2/26 11:50pm 185 2 G 3 41° 100% - - 41° 57.1° 40.6° - - 894.0
2/26 11:40pm 182 1 G 2 41° 100% - - 41° 57.1° 40.6° - - 893.0
2/26 11:30pm 200 2 G 4 42° 100% - - 42° 57.1° 40.6° - - 894.0
2/26 11:20pm 174 1 G 2 41° 100% - - 41° 57.1° 40.6° - - 894.0
2/26 11:10pm 130 0 G 2 41° 100% - - 41° 57.1° 40.9° - - 893.0
2/26 11:00pm 226 1 G 2 41° 100% - - 41° 57.1° 41.1° - - 893.0
2/26 10:50pm 221 1 G 3 42° 100% - - 42° 57.1° 41.4° - - 894.0
2/26 10:40pm 231 2 G 3 42° 100% - - 42° 57.1° 41.8° - - 894.0
2/26 10:30pm 205 1 G 3 42° 100% - - 42° 57.1° 42.2° - - 894.0
2/26 10:20pm 148 1 G 2 43° 100% - - 43° 57.1° 42.3° - - 893.0
2/26 10:10pm 48 0 G 1 44° 100% - - 44° 57.1° 43.3° - - 893.0
2/26 10:00pm 222 1 G 2 44° 99% - - 44° 57.1° 43.4° - - 893.0
2/26 9:50pm 279 1 G 2 45° 100% - - 45° 57.1° 43.4° - - 893.0
2/26 9:40pm 274 1 G 2 45° 100% - - 45° 57.1° 43.4° - - 894.0
2/26 9:30pm 213 2 G 3 45° 100% - - 45° 57.1° 43.4° - - 894.0
2/26 9:20pm 178 2 G 4 45° 100% - - 45° 57.1° 43.4° - - 894.0
2/26 9:10pm 168 2 G 4 45° 100% - - 45° 57.1° 43.4° - - 894.0
2/26 9:00pm 171 1 G 3 45° 100% - - 45° 57.1° 43.4° - - 894.0
2/26 8:50pm 233 2 G 3 45° 100% - - 45° 57.1° 43.4° - - 894.0
2/26 8:40pm 205 1 G 2 44° 100% - - 44° 57.1° 43.4° - - 894.0
2/26 8:30pm 174 1 G 2 44° 100% - - 44° 57.1° 43.4° - - 894.0
2/26 8:20pm 184 2 G 3 44° 100% - - 44° 57.1° 43.4° - - 893.0
2/26 8:10pm 170 1 G 2 44° 99% - - 43° 57.1° 43.5° - - 892.0
2/26 8:00pm 206 1 G 2 44° 96% - - 43° 57.1° 43.7° - - 891.0
2/26 7:50pm 216 1 G 2 45° 94% - - 44° 57.1° 44.8° - - 891.0
2/26 7:40pm 182 2 G 3 46° 92% - - 43° 57.1° 45.3° - - 890.0
2/26 7:30pm 179 1 G 2 46° 81% - - 41° 57.1° 45.3° - - 886.0
2/26 7:20pm 283 1 G 3 48° 78% - - 41° 57.1° 45.3° - - 885.0
2/26 7:10pm 283 0 G 1 48° 76% - - 41° 57.1° 45.3° - - 884.0
2/26 7:00pm 199 2 G 5 49° 74% - - 41° 57.1° 45.3° - - 884.0
2/26 6:50pm 212 4 G 8 49° 74% - - 41° 57.1° 45.3° - - 884.0
2/26 6:40pm 221 5 G 7 50° 74% - - 42° 57.1° 45.3° - - 884.0
2/26 6:30pm 218 5 G 8 50° 74% - - 42° 57.1° 45.3° - - 884.0
2/26 6:20pm 216 6 G 11 50° 73% - - 42° 57.1° 45.3° - - 884.0
2/26 6:10pm 207 7 G 10 51° 75% - - 43° 57.1° 45.3° - - 885.0
2/26 6:00pm 202 8 G 14 52° 74% - - 44° 57.1° 45.3° - - 884.0
2/26 5:50pm 181 6 G 10 52° 70% - - 43° 57.1° 45.3° - - 883.0
2/26 5:40pm 182 4 G 9 52° 71% - - 43° 57.1° 45.3° - - 883.0
2/26 5:30pm 184 5 G 8 52° 71% - - 43° 57.1° 45.3° - - 883.0
2/26 5:20pm 189 6 G 10 52° 70% - - 43° 57.1° 45.3° - - 883.0
2/26 5:10pm 181 6 G 10 52° 69% - - 43° 57.1° 45.3° - - 883.0
2/26 5:00pm 188 7 G 12 53° 68% - - 42° 57.1° 45.3° - - 883.0
2/26 4:50pm 184 10 G 15 54° 66% - - 43° 57.1° 45.3° - - 882.0